createdAt,value
2022-11-26T00:02:23.788Z,26.45
2022-11-26T00:04:52.550Z,25.33
2022-11-26T00:07:25.842Z,27.58
2022-11-26T00:09:55.102Z,21.48
2022-11-26T00:12:24.960Z,25.50
2022-11-26T00:14:53.074Z,30.55
2022-11-26T00:17:21.471Z,24.27
2022-11-26T00:19:48.894Z,31.23
2022-11-26T00:22:30.351Z,27.15
2022-11-26T00:24:58.183Z,25.60
2022-11-26T00:27:27.535Z,24.20
2022-11-26T00:29:55.333Z,29.95
2022-11-26T00:32:26.714Z,23.75
2022-11-26T00:34:54.195Z,32.38
2022-11-26T00:37:23.278Z,24.95
2022-11-26T00:39:51.457Z,25.00
2022-11-26T00:42:19.295Z,31.77
2022-11-26T00:44:46.778Z,22.70
2022-11-26T00:47:14.388Z,28.13
2022-11-26T00:49:42.455Z,29.42
2022-11-26T00:52:42.462Z,24.52
2022-11-26T00:55:35.997Z,30.00
2022-11-26T00:58:05.415Z,26.83
2022-11-26T01:00:34.563Z,26.38
2022-11-26T01:03:02.866Z,22.55
2022-11-26T01:05:33.360Z,27.30
2022-11-26T01:08:03.137Z,23.70
2022-11-26T01:10:30.928Z,26.65
2022-11-26T01:12:58.399Z,27.98
2022-11-26T01:15:26.945Z,24.38
2022-11-26T01:17:54.502Z,26.45
2022-11-26T01:20:30.775Z,26.20
2022-11-26T01:22:58.874Z,24.17
2022-11-26T01:25:26.932Z,25.02
2022-11-26T01:27:54.463Z,25.33
2022-11-26T01:30:27.953Z,28.70
2022-11-26T01:32:55.276Z,27.27
2022-11-26T01:35:23.580Z,22.80
2022-11-26T01:37:50.811Z,24.02
2022-11-26T01:40:26.914Z,21.10
2022-11-26T01:43:00.648Z,25.52
2022-11-26T01:45:28.129Z,24.17
2022-11-26T01:47:55.453Z,23.92
2022-11-26T01:50:29.123Z,32.35
2022-11-26T01:53:12.255Z,25.90
2022-11-26T01:55:47.975Z,29.73
2022-11-26T01:58:20.970Z,25.67
2022-11-26T02:00:50.286Z,31.90
2022-11-26T02:03:22.031Z,22.77
2022-11-26T02:06:01.355Z,25.90
2022-11-26T02:08:31.431Z,27.77
2022-11-26T02:10:58.703Z,24.63
2022-11-26T02:13:26.682Z,29.25
2022-11-26T02:16:20.101Z,29.27
2022-11-26T02:19:16.319Z,31.17
2022-11-26T02:21:52.775Z,26.17
2022-11-26T02:24:28.978Z,28.17
2022-11-26T02:27:18.568Z,26.80
2022-11-26T02:29:55.749Z,29.05
2022-11-26T02:32:29.930Z,27.48
2022-11-26T02:35:12.610Z,34.10
2022-11-26T02:37:50.963Z,36.38
2022-11-26T02:40:18.946Z,31.92
2022-11-26T02:42:46.408Z,26.38
2022-11-26T02:45:18.865Z,23.58
2022-11-26T02:47:50.543Z,21.77
2022-11-26T02:50:26.567Z,25.60
2022-11-26T02:52:57.061Z,29.55
2022-11-26T02:55:29.093Z,23.75
2022-11-26T02:57:57.535Z,34.20
2022-11-26T03:00:25.129Z,28.67
2022-11-26T03:03:23.670Z,34.65
2022-11-26T03:05:56.046Z,30.83
2022-11-26T03:08:25.222Z,30.35
2022-11-26T03:10:52.624Z,26.88
2022-11-26T03:13:19.976Z,25.98
2022-11-26T03:15:47.239Z,25.10
2022-11-26T03:18:14.543Z,24.63
2022-11-26T03:20:41.781Z,26.95
2022-11-26T03:23:09.124Z,23.90
2022-11-26T03:25:36.742Z,23.23
2022-11-26T03:28:04.335Z,20.70
2022-11-26T03:30:32.076Z,19.50
2022-11-26T03:32:59.422Z,28.10
2022-11-26T03:35:26.678Z,27.70
2022-11-26T03:37:53.965Z,29.15
2022-11-26T03:40:21.238Z,30.63
2022-11-26T03:42:48.482Z,28.50
2022-11-26T03:45:15.769Z,27.25
2022-11-26T03:47:43.037Z,32.70
2022-11-26T03:50:10.732Z,27.77
2022-11-26T03:52:37.947Z,25.98
2022-11-26T03:55:05.540Z,22.80
2022-11-26T03:57:32.839Z,23.27
2022-11-26T04:00:00.283Z,24.50
2022-11-26T04:02:27.816Z,24.13
2022-11-26T04:04:55.040Z,30.08
2022-11-26T04:07:22.342Z,31.15
2022-11-26T04:09:49.761Z,32.35
2022-11-26T04:12:17.027Z,27.38
2022-11-26T04:14:44.737Z,30.02
2022-11-26T04:17:12.147Z,30.50
2022-11-26T04:19:39.418Z,32.75
2022-11-26T04:22:06.670Z,30.20
2022-11-26T04:24:33.917Z,32.92
2022-11-26T04:27:01.208Z,37.70
2022-11-26T04:29:28.482Z,26.63
2022-11-26T04:31:55.770Z,38.45
2022-11-26T04:34:23.093Z,33.78
2022-11-26T04:36:50.535Z,31.13
2022-11-26T04:39:17.853Z,35.83
2022-11-26T04:41:45.180Z,29.08
2022-11-26T04:44:12.475Z,27.08
2022-11-26T04:46:39.795Z,33.60
2022-11-26T04:49:07.671Z,27.90
2022-11-26T04:51:34.917Z,31.65
2022-11-26T04:54:03.767Z,28.52
2022-11-26T04:56:32.086Z,36.15
2022-11-26T04:58:59.324Z,31.08
2022-11-26T05:01:27.046Z,36.13
2022-11-26T05:03:54.303Z,33.80
2022-11-26T05:06:21.574Z,28.35
2022-11-26T05:08:48.774Z,29.10
2022-11-26T05:11:15.999Z,33.55
2022-11-26T05:13:43.290Z,37.00
2022-11-26T05:16:10.576Z,42.47
2022-11-26T05:18:37.868Z,29.95
2022-11-26T05:21:06.456Z,33.42
2022-11-26T05:23:33.873Z,26.35
2022-11-26T05:26:01.125Z,29.17
2022-11-26T05:28:28.365Z,29.85
2022-11-26T05:31:01.072Z,33.33
2022-11-26T05:33:28.717Z,35.50
2022-11-26T05:35:56.238Z,29.08
2022-11-26T05:38:24.057Z,32.90
2022-11-26T05:40:51.396Z,28.20
2022-11-26T05:43:18.775Z,28.17
2022-11-26T05:45:46.202Z,32.05
2022-11-26T05:48:13.545Z,33.25
2022-11-26T05:50:40.849Z,30.60
2022-11-26T05:53:08.450Z,30.83
2022-11-26T05:55:35.762Z,35.67
2022-11-26T05:58:03.035Z,31.23
2022-11-26T06:00:30.492Z,34.72
2022-11-26T06:02:57.975Z,27.08
2022-11-26T06:05:25.362Z,33.00
2022-11-26T06:07:52.675Z,26.70
2022-11-26T06:10:20.083Z,29.48
2022-11-26T06:12:47.399Z,29.20
2022-11-26T06:15:14.785Z,27.88
2022-11-26T06:17:42.087Z,24.52
2022-11-26T06:20:09.817Z,29.67
2022-11-26T06:22:41.734Z,29.65
2022-11-26T06:25:11.774Z,34.13
2022-11-26T06:27:40.023Z,27.48
2022-11-26T06:30:09.477Z,22.80
2022-11-26T06:32:36.786Z,31.08
2022-11-26T06:35:04.704Z,29.23
2022-11-26T06:37:33.034Z,27.65
2022-11-26T06:40:00.471Z,23.90
2022-11-26T06:42:27.860Z,28.15
2022-11-26T06:44:59.658Z,27.02
2022-11-26T06:47:27.644Z,33.45
2022-11-26T06:49:55.499Z,28.85
2022-11-26T06:52:22.779Z,19.52
2022-11-26T06:54:50.174Z,30.48
2022-11-26T06:57:17.478Z,35.10
2022-11-26T06:59:44.654Z,28.88
2022-11-26T07:02:11.911Z,32.38
2022-11-26T07:04:39.346Z,37.45
2022-11-26T07:07:06.757Z,28.33
2022-11-26T07:09:33.993Z,30.50
2022-11-26T07:12:01.305Z,26.27
2022-11-26T07:14:28.646Z,31.25
2022-11-26T07:16:55.885Z,26.88
2022-11-26T07:19:23.414Z,28.65
2022-11-26T07:21:50.781Z,33.40
2022-11-26T07:24:18.095Z,31.55
2022-11-26T07:26:45.327Z,29.95
2022-11-26T07:29:12.686Z,29.30
2022-11-26T07:31:40.021Z,39.63
2022-11-26T07:34:07.443Z,33.90
2022-11-26T07:36:34.869Z,35.42
2022-11-26T07:39:02.991Z,34.75
2022-11-26T07:41:30.653Z,32.13
2022-11-26T07:43:58.198Z,27.00
2022-11-26T07:46:26.669Z,35.58
2022-11-26T07:48:55.581Z,33.25
2022-11-26T07:51:25.765Z,41.67
2022-11-26T07:53:53.913Z,32.65
2022-11-26T07:56:21.453Z,31.75
2022-11-26T07:58:49.155Z,31.48
2022-11-26T08:01:20.129Z,31.25
2022-11-26T08:03:49.426Z,36.00
2022-11-26T08:06:22.012Z,33.58
2022-11-26T08:08:49.989Z,37.78
2022-11-26T08:11:19.855Z,31.58
2022-11-26T08:13:47.987Z,36.30
2022-11-26T08:16:15.765Z,30.88
2022-11-26T08:18:43.206Z,28.15
2022-11-26T08:21:10.438Z,27.58
2022-11-26T08:23:38.103Z,22.52
2022-11-26T08:26:34.643Z,24.50
2022-11-26T08:29:00.390Z,34.25
2022-11-26T08:31:28.436Z,28.20
2022-11-26T08:34:00.061Z,28.27
2022-11-26T08:36:31.401Z,28.25
2022-11-26T08:39:00.087Z,22.67
2022-11-26T08:41:27.530Z,32.45
2022-11-26T08:44:10.139Z,26.88
2022-11-26T08:46:39.776Z,27.75
2022-11-26T08:49:09.772Z,25.15
2022-11-26T08:51:37.135Z,22.70
2022-11-26T08:54:04.634Z,22.90
2022-11-26T08:56:32.002Z,20.77
2022-11-26T08:58:59.279Z,24.63
2022-11-26T09:01:28.851Z,30.15
2022-11-26T09:03:58.474Z,26.67
2022-11-26T09:06:28.832Z,22.85
2022-11-26T09:09:14.643Z,22.08
2022-11-26T09:12:02.663Z,27.38
2022-11-26T09:14:35.126Z,20.80
2022-11-26T09:17:02.569Z,21.40
2022-11-26T09:19:29.944Z,18.30
2022-11-26T09:21:58.422Z,22.75
2022-11-26T09:24:26.266Z,19.08
2022-11-26T09:26:53.889Z,17.73
2022-11-26T09:29:23.263Z,21.05
2022-11-26T09:34:39.101Z,19.95
2022-11-26T09:37:06.678Z,14.68
2022-11-26T09:39:33.980Z,18.45
2022-11-26T09:42:35.513Z,20.50
2022-11-26T09:45:08.554Z,22.92
2022-11-26T09:47:48.507Z,15.88
2022-11-26T09:50:15.750Z,19.05
2022-11-26T09:52:57.858Z,24.23
2022-11-26T09:55:35.092Z,19.35
2022-11-26T09:58:26.632Z,21.75
2022-11-26T10:00:59.654Z,20.58
2022-11-26T10:03:35.594Z,18.25
2022-11-26T10:06:14.182Z,21.70
2022-11-26T10:09:09.409Z,19.92
2022-11-26T10:11:42.626Z,21.83
2022-11-26T10:14:46.391Z,21.73
2022-11-26T10:17:52.802Z,22.13
2022-11-26T10:20:57.711Z,21.27
2022-11-26T10:23:40.353Z,27.40
2022-11-26T10:26:16.559Z,18.88
2022-11-26T10:28:46.993Z,17.10
2022-11-26T10:31:34.499Z,21.92
2022-11-26T10:34:13.498Z,19.35
2022-11-26T10:36:42.311Z,18.70
2022-11-26T10:39:14.714Z,22.70
2022-11-26T10:41:42.604Z,21.30
2022-11-26T10:44:29.311Z,21.88
2022-11-26T10:46:57.780Z,17.17
2022-11-26T10:49:28.313Z,17.85
2022-11-26T10:52:01.419Z,22.85
2022-11-26T10:54:33.826Z,22.25
2022-11-26T10:57:10.166Z,22.27
2022-11-26T10:59:45.987Z,21.15
2022-11-26T11:02:13.315Z,21.83
2022-11-26T11:04:45.096Z,22.60
2022-11-26T11:07:31.881Z,18.90
2022-11-26T11:10:05.329Z,22.70
2022-11-26T11:12:32.824Z,24.60
2022-11-26T11:15:18.254Z,15.55
2022-11-26T11:18:00.966Z,13.63
2022-11-26T11:20:34.558Z,16.52
2022-11-26T11:23:45.676Z,17.05
2022-11-26T11:26:23.602Z,16.20
2022-11-26T11:28:53.137Z,19.33
2022-11-26T11:31:23.216Z,16.63
2022-11-26T11:33:52.582Z,18.27
2022-11-26T11:36:29.112Z,13.55
2022-11-26T11:38:59.027Z,20.35
2022-11-26T11:41:46.069Z,14.82
2022-11-26T11:44:16.075Z,19.23
2022-11-26T11:47:13.050Z,17.38
2022-11-26T11:50:01.487Z,18.73
2022-11-26T11:52:41.985Z,16.85
2022-11-26T11:55:17.762Z,17.95
2022-11-26T11:57:54.659Z,15.07
2022-11-26T12:00:26.193Z,18.13
2022-11-26T12:03:23.411Z,13.38
2022-11-26T12:06:18.083Z,17.02
2022-11-26T12:09:23.770Z,14.57
2022-11-26T12:11:59.857Z,16.92
2022-11-26T12:14:36.037Z,16.83
2022-11-26T12:17:36.798Z,15.52
2022-11-26T12:20:33.374Z,14.80
2022-11-26T12:23:22.814Z,18.55
2022-11-26T12:26:11.624Z,16.90
2022-11-26T12:28:51.340Z,13.02
2022-11-26T12:31:20.873Z,16.10
2022-11-26T12:34:07.084Z,15.05
2022-11-26T12:36:55.452Z,17.88
2022-11-26T12:39:56.616Z,15.23
2022-11-26T12:42:51.626Z,14.50
2022-11-26T12:45:41.150Z,17.00
2022-11-26T12:48:37.599Z,14.30
2022-11-26T12:51:36.974Z,19.90
2022-11-26T12:54:16.305Z,15.00
2022-11-26T12:56:50.751Z,22.00
2022-11-26T12:59:41.296Z,13.38
2022-11-26T13:02:39.837Z,12.00
2022-11-26T13:05:07.482Z,19.00
2022-11-26T13:08:05.819Z,14.93
2022-11-26T13:10:48.250Z,16.92
2022-11-26T13:13:22.905Z,16.65
2022-11-26T13:16:16.404Z,16.85
2022-11-26T13:18:52.929Z,14.52
2022-11-26T13:21:29.160Z,13.73
2022-11-26T13:24:23.874Z,15.30
2022-11-26T13:26:57.220Z,14.15
2022-11-26T13:30:00.735Z,13.98
2022-11-26T13:32:55.813Z,15.27
2022-11-26T13:35:23.006Z,14.43
2022-11-26T13:38:27.730Z,15.55
2022-11-26T13:41:15.982Z,13.23
2022-11-26T13:43:55.078Z,17.50
2022-11-26T13:46:39.174Z,17.95
2022-11-26T13:49:14.040Z,15.25
2022-11-26T13:51:53.623Z,12.23
2022-11-26T13:54:23.904Z,16.15
2022-11-26T13:56:59.924Z,14.45
2022-11-26T13:59:28.933Z,21.08
2022-11-26T14:01:56.907Z,17.35
2022-11-26T14:04:24.239Z,20.05
2022-11-26T14:07:03.880Z,29.15
2022-11-26T14:09:42.798Z,23.60
2022-11-26T14:12:10.926Z,20.20
2022-11-26T14:14:39.936Z,19.00
2022-11-26T14:17:07.312Z,22.70
2022-11-26T14:19:40.567Z,20.05
2022-11-26T14:22:22.777Z,19.95
2022-11-26T14:24:52.784Z,19.73
2022-11-26T14:27:31.987Z,21.88
2022-11-26T14:30:08.434Z,22.85
2022-11-26T14:32:50.434Z,20.27
2022-11-26T14:35:33.964Z,18.15
2022-11-26T14:38:04.958Z,20.47
2022-11-26T14:40:36.527Z,20.65
2022-11-26T14:43:19.653Z,23.90
2022-11-26T14:46:12.566Z,26.10
2022-11-26T14:48:48.496Z,20.60
2022-11-26T14:51:25.475Z,23.00
2022-11-26T14:53:55.336Z,22.00
2022-11-26T14:56:24.655Z,14.18
2022-11-26T14:58:54.846Z,17.40
2022-11-26T15:01:24.935Z,19.10
2022-11-26T15:03:57.028Z,14.65
2022-11-26T15:06:27.223Z,20.73
2022-11-26T15:09:33.269Z,15.57
2022-11-26T15:12:12.508Z,14.30
2022-11-26T15:14:56.023Z,13.32
2022-11-26T15:17:26.267Z,20.90
2022-11-26T15:19:56.120Z,11.52
2022-11-26T15:22:37.541Z,12.77
2022-11-26T15:25:14.933Z,16.70
2022-11-26T15:27:54.353Z,13.88
2022-11-26T15:30:26.015Z,12.05
2022-11-26T15:33:01.854Z,11.88
2022-11-26T15:35:36.411Z,13.48
2022-11-26T15:38:15.246Z,16.48
2022-11-26T15:41:03.548Z,14.23
2022-11-26T15:43:35.477Z,13.75
2022-11-26T15:46:30.850Z,15.70
2022-11-26T15:51:33.762Z,15.35
2022-11-26T15:54:16.997Z,14.05
2022-11-26T15:56:51.522Z,10.60
2022-11-26T15:59:20.460Z,13.70
2022-11-26T16:01:48.366Z,12.77
2022-11-26T16:04:38.168Z,10.50
2022-11-26T16:07:16.416Z,11.55
2022-11-26T16:09:44.971Z,12.30
2022-11-26T16:12:33.154Z,13.40
2022-11-26T16:15:21.101Z,12.75
2022-11-26T16:17:49.684Z,10.35
2022-11-26T16:20:22.840Z,13.15
2022-11-26T16:22:53.356Z,15.23
2022-11-26T16:25:26.679Z,10.98
2022-11-26T16:28:12.133Z,11.77
2022-11-26T16:30:42.676Z,12.93
2022-11-26T16:33:10.611Z,11.13
2022-11-26T16:35:46.513Z,12.98
2022-11-26T16:38:22.248Z,14.75
2022-11-26T16:40:50.129Z,10.65
2022-11-26T16:43:18.050Z,12.25
2022-11-26T16:45:46.371Z,15.30
2022-11-26T16:48:25.731Z,15.65
2022-11-26T16:50:56.789Z,13.88
2022-11-26T16:53:24.391Z,19.40
2022-11-26T16:55:53.537Z,11.80
2022-11-26T16:58:30.726Z,14.88
2022-11-26T17:00:58.853Z,17.17
2022-11-26T17:03:28.041Z,13.95
2022-11-26T17:05:58.281Z,10.23
2022-11-26T17:08:25.781Z,13.85
2022-11-26T17:10:53.190Z,11.63
2022-11-26T17:13:20.650Z,12.10
2022-11-26T17:15:49.360Z,15.30
2022-11-26T17:18:22.922Z,11.57
2022-11-26T17:20:51.732Z,15.38
2022-11-26T17:23:19.076Z,12.55
2022-11-26T17:25:52.708Z,14.10
2022-11-26T17:28:21.186Z,9.95
2022-11-26T17:30:48.878Z,14.77
2022-11-26T17:33:16.518Z,12.93
2022-11-26T17:35:43.808Z,15.57
2022-11-26T17:38:20.579Z,13.18
2022-11-26T17:40:48.615Z,14.32
2022-11-26T17:43:16.916Z,15.30
2022-11-26T17:45:44.540Z,17.58
2022-11-26T17:48:14.046Z,18.50
2022-11-26T17:50:42.539Z,16.67
2022-11-26T17:53:09.870Z,15.93
2022-11-26T17:55:38.145Z,15.25
2022-11-26T17:58:05.408Z,12.65
2022-11-26T18:00:32.947Z,12.02
2022-11-26T18:03:00.355Z,17.30
2022-11-26T18:05:28.219Z,15.05
2022-11-26T18:07:55.620Z,16.02
2022-11-26T18:10:23.687Z,16.52
2022-11-26T18:12:54.013Z,19.17
2022-11-26T18:15:26.345Z,9.90
2022-11-26T18:17:55.219Z,16.75
2022-11-26T18:20:28.297Z,18.88
2022-11-26T18:23:00.467Z,13.10
2022-11-26T18:25:28.897Z,11.63
2022-11-26T18:27:56.229Z,15.07
2022-11-26T18:30:24.668Z,14.23
2022-11-26T18:32:52.075Z,12.68
2022-11-26T18:35:19.610Z,11.43
2022-11-26T18:37:46.963Z,16.13
2022-11-26T18:40:16.991Z,16.23
2022-11-26T18:42:44.795Z,12.40
2022-11-26T18:45:14.799Z,16.15
2022-11-26T18:47:42.401Z,13.00
2022-11-26T18:50:10.021Z,17.80
2022-11-26T18:52:37.359Z,16.67
2022-11-26T18:55:07.386Z,12.35
2022-11-26T18:57:34.689Z,14.65
2022-11-26T19:00:02.281Z,15.32
2022-11-26T19:02:30.091Z,15.27
2022-11-26T19:04:57.371Z,16.58
2022-11-26T19:07:24.619Z,16.63
2022-11-26T19:09:51.978Z,17.50
2022-11-26T19:12:19.329Z,13.90
2022-11-26T19:14:46.560Z,12.10
2022-11-26T19:17:14.015Z,15.80
2022-11-26T19:19:41.702Z,17.00
2022-11-26T19:22:09.307Z,16.85
2022-11-26T19:24:36.672Z,16.05
2022-11-26T19:27:04.086Z,14.35
2022-11-26T19:29:31.499Z,13.90
2022-11-26T19:31:58.804Z,13.82
2022-11-26T19:34:26.034Z,19.50
2022-11-26T19:36:56.655Z,16.55
2022-11-26T19:39:23.979Z,14.75
2022-11-26T19:41:51.673Z,21.40
2022-11-26T19:44:18.992Z,18.02
2022-11-26T19:46:48.028Z,16.48
2022-11-26T19:49:15.516Z,19.58
2022-11-26T19:51:42.980Z,25.38
2022-11-26T19:54:10.609Z,15.55
2022-11-26T19:56:37.943Z,17.20
2022-11-26T19:59:05.460Z,14.40
2022-11-26T20:01:34.279Z,16.67
2022-11-26T20:04:04.897Z,18.85
2022-11-26T20:06:34.322Z,14.75
2022-11-26T20:09:02.823Z,14.57
2022-11-26T20:11:30.309Z,12.82
2022-11-26T20:13:58.554Z,15.68
2022-11-26T20:16:31.412Z,18.25
2022-11-26T20:18:59.613Z,13.85
2022-11-26T20:21:30.855Z,15.23
2022-11-26T20:24:00.688Z,13.93
2022-11-26T20:26:37.331Z,14.90
2022-11-26T20:29:07.348Z,13.18
2022-11-26T20:31:35.569Z,10.98
2022-11-26T20:34:04.187Z,14.45
2022-11-26T20:36:32.161Z,16.70
2022-11-26T20:39:01.549Z,16.95
2022-11-26T20:41:30.171Z,18.00
2022-11-26T20:43:59.533Z,16.85
2022-11-26T20:46:28.506Z,15.00
2022-11-26T20:48:56.913Z,12.43
2022-11-26T20:51:24.867Z,16.85
2022-11-26T20:53:53.505Z,16.67
2022-11-26T20:56:21.825Z,15.55
2022-11-26T20:58:50.546Z,14.43
2022-11-26T21:01:23.929Z,15.95
2022-11-26T21:03:52.659Z,16.65
2022-11-26T21:06:27.543Z,15.35
2022-11-26T21:09:01.319Z,18.90
2022-11-26T21:11:29.833Z,13.13
2022-11-26T21:13:59.617Z,17.25
2022-11-26T21:16:28.072Z,18.45
2022-11-26T21:18:56.059Z,15.70
2022-11-26T21:21:25.093Z,17.70
2022-11-26T21:23:53.061Z,14.23
2022-11-26T21:26:22.730Z,20.00
2022-11-26T21:28:55.680Z,14.70
2022-11-26T21:31:24.418Z,19.27
2022-11-26T21:33:57.744Z,14.05
2022-11-26T21:36:25.550Z,19.65
2022-11-26T21:38:53.280Z,18.20
2022-11-26T21:41:21.379Z,16.20
2022-11-26T21:43:49.798Z,14.07
2022-11-26T21:46:20.404Z,16.70
2022-11-26T21:48:48.272Z,19.02
2022-11-26T21:51:17.380Z,15.73
2022-11-26T21:53:45.583Z,12.80
2022-11-26T21:56:19.265Z,15.77
2022-11-26T21:58:47.417Z,13.60
2022-11-26T22:01:20.318Z,14.48
2022-11-26T22:03:50.082Z,18.50
2022-11-26T22:06:19.499Z,15.45
2022-11-26T22:08:47.722Z,12.73
2022-11-26T22:11:23.950Z,15.75
2022-11-26T22:13:51.681Z,13.65
2022-11-26T22:16:21.518Z,14.95
2022-11-26T22:18:49.436Z,17.08
2022-11-26T22:21:19.813Z,12.70
2022-11-26T22:23:47.401Z,14.35
2022-11-26T22:26:14.856Z,11.60
2022-11-26T22:28:42.508Z,17.35
2022-11-26T22:31:17.294Z,14.88
2022-11-26T22:33:45.402Z,17.02
2022-11-26T22:36:12.887Z,16.08
2022-11-26T22:38:41.183Z,16.10
2022-11-26T22:41:11.791Z,18.35
2022-11-26T22:43:39.646Z,14.85
2022-11-26T22:46:10.265Z,11.50
2022-11-26T22:48:37.670Z,16.83
2022-11-26T22:51:05.259Z,15.80
2022-11-26T22:53:35.733Z,14.95
2022-11-26T22:56:04.575Z,18.85
2022-11-26T22:58:33.894Z,15.32
2022-11-26T23:01:07.959Z,16.65
2022-11-26T23:03:37.417Z,15.60
2022-11-26T23:06:10.280Z,14.13
2022-11-26T23:08:38.701Z,18.13
2022-11-26T23:11:18.111Z,13.45
2022-11-26T23:13:46.620Z,17.48
2022-11-26T23:16:14.856Z,17.67
2022-11-26T23:18:42.403Z,15.20
2022-11-26T23:21:13.038Z,20.83
2022-11-26T23:23:41.319Z,15.48
2022-11-26T23:26:11.958Z,17.23
2022-11-26T23:28:42.204Z,16.20
2022-11-26T23:31:21.796Z,18.80
2022-11-26T23:33:50.045Z,17.77
2022-11-26T23:36:18.078Z,17.60
2022-11-26T23:38:45.698Z,15.75
2022-11-26T23:41:13.031Z,16.80
2022-11-26T23:43:40.456Z,19.80
2022-11-26T23:46:15.013Z,14.30
2022-11-26T23:51:24.236Z,16.52
2022-11-26T23:53:52.634Z,15.18
2022-11-26T23:56:31.698Z,13.68
2022-11-26T23:59:02.062Z,15.73
